createdAt,value
2019-01-17T00:02:25.979Z,98324.21
2019-01-17T00:05:19.157Z,98308.02
2019-01-17T00:08:05.202Z,98302.53
2019-01-17T00:11:02.855Z,98298.72
2019-01-17T00:13:59.545Z,98301.49
2019-01-17T00:16:46.337Z,98296.47
2019-01-17T00:19:40.685Z,98298.97
2019-01-17T00:22:31.303Z,98281.89
2019-01-17T00:25:21.902Z,98275.72
2019-01-17T00:28:24.367Z,98270.70
2019-01-17T00:30:59.849Z,98281.03
2019-01-17T00:33:59.082Z,98269.50
2019-01-17T00:37:04.495Z,98271.87
2019-01-17T00:39:48.089Z,98273.80
2019-01-17T00:42:29.083Z,98275.23
2019-01-17T00:45:17.409Z,98274.52
2019-01-17T00:48:03.751Z,98264.73
2019-01-17T00:50:49.727Z,98268.63
2019-01-17T00:53:37.108Z,98281.34
2019-01-17T00:56:36.492Z,98271.33
2019-01-17T00:59:41.992Z,98280.95
2019-01-17T01:02:23.011Z,98279.78
2019-01-17T01:05:03.226Z,98267.03
2019-01-17T01:07:54.435Z,98263.89
2019-01-17T01:11:00.356Z,98262.39
2019-01-17T01:13:46.552Z,98266.47
2019-01-17T01:16:49.288Z,98250.81
2019-01-17T01:19:30.816Z,98264.55
2019-01-17T01:22:10.966Z,98259.62
2019-01-17T01:24:58.337Z,98260.73
2019-01-17T01:27:51.335Z,98266.63
2019-01-17T01:30:41.721Z,98277.27
2019-01-17T01:33:29.088Z,98271.33
2019-01-17T01:36:22.613Z,98273.08
2019-01-17T01:39:10.054Z,98270.31
2019-01-17T01:41:56.396Z,98273.23
2019-01-17T01:44:46.303Z,98281.28
2019-01-17T01:47:30.848Z,98268.39
2019-01-17T01:50:24.358Z,98274.31
2019-01-17T01:53:07.054Z,98267.77
2019-01-17T01:55:34.981Z,98257.80
2019-01-17T01:58:27.436Z,98265.95
2019-01-17T02:00:55.219Z,98251.71
2019-01-17T02:03:23.031Z,98260.51
2019-01-17T02:05:50.826Z,98266.54
2019-01-17T02:08:18.766Z,98266.38
2019-01-17T02:10:46.558Z,98265.55
2019-01-17T02:13:14.382Z,98257.55
2019-01-17T02:15:42.204Z,98259.36
2019-01-17T02:18:10.084Z,98265.06
2019-01-17T02:20:37.848Z,98260.02
2019-01-17T02:23:05.613Z,98259.83
2019-01-17T02:25:33.429Z,98268.99
2019-01-17T02:28:01.192Z,98271.59
2019-01-17T02:30:28.962Z,98263.11
2019-01-17T02:32:56.758Z,98263.44
2019-01-17T02:35:24.575Z,98266.70
2019-01-17T02:37:52.382Z,98264.08
2019-01-17T02:40:20.167Z,98269.14
2019-01-17T02:42:47.994Z,98259.03
2019-01-17T02:45:15.805Z,98266.23
2019-01-17T02:47:43.569Z,98261.05
2019-01-17T02:50:11.575Z,98258.20
2019-01-17T02:52:39.364Z,98255.95
2019-01-17T02:55:07.995Z,98258.58
2019-01-17T02:57:35.993Z,98253.52
2019-01-17T03:00:08.436Z,98250.06
2019-01-17T03:02:36.194Z,98244.52
2019-01-17T03:05:04.779Z,98242.59
2019-01-17T03:07:32.712Z,98239.80
2019-01-17T03:10:00.508Z,98242.52
2019-01-17T03:12:28.291Z,98240.68
2019-01-17T03:14:57.881Z,98235.06
2019-01-17T03:17:45.411Z,98236.35
2019-01-17T03:20:13.892Z,98239.28
2019-01-17T03:22:41.741Z,98234.04
2019-01-17T03:25:09.875Z,98235.48
2019-01-17T03:28:08.425Z,98227.80
2019-01-17T03:30:36.388Z,98230.21
2019-01-17T03:33:04.214Z,98225.33
2019-01-17T03:35:32.004Z,98217.48
2019-01-17T03:37:59.824Z,98221.88
2019-01-17T03:40:27.645Z,98212.87
2019-01-17T03:42:55.463Z,98216.47
2019-01-17T03:45:23.282Z,98220.02
2019-01-17T03:47:51.118Z,98210.03
2019-01-17T03:50:18.993Z,98214.27
2019-01-17T03:52:46.791Z,98206.60
2019-01-17T03:55:18.358Z,98212.27
2019-01-17T03:57:46.189Z,98207.84
2019-01-17T04:00:18.912Z,98214.23
2019-01-17T04:02:46.750Z,98200.33
2019-01-17T04:05:14.554Z,98200.31
2019-01-17T04:07:42.368Z,98207.17
2019-01-17T04:10:13.081Z,98207.84
2019-01-17T04:12:41.166Z,98206.72
2019-01-17T04:15:09.847Z,98199.38
2019-01-17T04:17:37.655Z,98205.77
2019-01-17T04:20:09.055Z,98205.33
2019-01-17T04:22:36.839Z,98206.14
2019-01-17T04:25:06.053Z,98196.17
2019-01-17T04:27:33.832Z,98202.88
2019-01-17T04:30:01.674Z,98194.88
2019-01-17T04:32:29.498Z,98197.00
2019-01-17T04:34:57.311Z,98195.21
2019-01-17T04:37:25.125Z,98197.86
2019-01-17T04:39:52.879Z,98198.69
2019-01-17T04:42:20.650Z,98193.33
2019-01-17T04:44:48.440Z,98197.24
2019-01-17T04:47:16.224Z,98194.73
2019-01-17T04:49:44.046Z,98190.34
2019-01-17T04:52:11.790Z,98187.19
2019-01-17T04:54:39.591Z,98181.78
2019-01-17T04:57:12.503Z,98178.18
2019-01-17T04:59:40.703Z,98182.92
2019-01-17T05:02:10.929Z,98187.20
2019-01-17T05:04:38.675Z,98196.59
2019-01-17T05:07:06.463Z,98189.47
2019-01-17T05:09:34.261Z,98189.63
2019-01-17T05:12:02.084Z,98202.08
2019-01-17T05:14:29.923Z,98189.73
2019-01-17T05:16:57.958Z,98195.93
2019-01-17T05:19:25.742Z,98201.04
2019-01-17T05:21:53.479Z,98195.34
2019-01-17T05:24:23.279Z,98199.06
2019-01-17T05:26:51.362Z,98187.19
2019-01-17T05:29:19.127Z,98182.15
2019-01-17T05:31:46.853Z,98186.91
2019-01-17T05:34:15.458Z,98184.96
2019-01-17T05:37:13.948Z,98184.16
2019-01-17T05:40:01.196Z,98182.57
2019-01-17T05:42:29.002Z,98188.95
2019-01-17T05:44:56.810Z,98179.47
2019-01-17T05:47:24.557Z,98179.81
2019-01-17T05:49:52.390Z,98180.50
2019-01-17T05:52:20.174Z,98181.03
2019-01-17T05:54:47.909Z,98180.56
2019-01-17T05:57:15.690Z,98181.75
2019-01-17T05:59:43.482Z,98155.52
2019-01-17T06:02:11.246Z,98184.07
2019-01-17T06:04:39.072Z,98184.09
2019-01-17T06:07:07.013Z,98189.95
2019-01-17T06:09:34.802Z,98189.80
2019-01-17T06:12:02.554Z,98184.22
2019-01-17T06:14:30.395Z,98182.45
2019-01-17T06:16:58.152Z,98181.31
2019-01-17T06:19:25.970Z,98184.42
2019-01-17T06:21:53.737Z,98185.25
2019-01-17T06:24:21.572Z,98178.55
2019-01-17T06:27:02.471Z,98176.75
2019-01-17T06:29:30.309Z,98178.37
2019-01-17T06:31:58.186Z,98170.72
2019-01-17T06:34:26.000Z,98173.83
2019-01-17T06:36:53.805Z,98177.77
2019-01-17T06:39:21.664Z,98173.36
2019-01-17T06:41:49.402Z,98175.16
2019-01-17T06:44:20.495Z,98175.16
2019-01-17T06:46:46.919Z,98172.50
2019-01-17T06:49:14.723Z,98172.53
2019-01-17T06:51:42.515Z,98177.13
2019-01-17T06:54:10.284Z,98172.71
2019-01-17T06:56:38.050Z,98171.91
2019-01-17T06:59:05.944Z,98168.81
2019-01-17T07:01:33.712Z,98175.35
2019-01-17T07:04:01.625Z,98171.59
2019-01-17T07:06:29.451Z,98169.98
2019-01-17T07:08:57.282Z,98170.33
2019-01-17T07:11:25.113Z,98167.58
2019-01-17T07:13:55.148Z,98174.26
2019-01-17T07:16:22.963Z,98175.86
2019-01-17T07:18:51.002Z,98176.86
2019-01-17T07:21:18.780Z,98179.78
2019-01-17T07:23:46.606Z,98175.73
2019-01-17T07:26:14.463Z,98171.50
2019-01-17T07:28:47.571Z,98168.84
2019-01-17T07:31:15.499Z,98179.95
2019-01-17T07:33:43.377Z,98172.12
2019-01-17T07:36:11.195Z,98178.02
2019-01-17T07:38:39.636Z,98179.83
2019-01-17T07:41:07.472Z,98183.73
2019-01-17T07:43:35.278Z,98181.81
2019-01-17T07:46:03.098Z,98185.08
2019-01-17T07:48:31.007Z,98183.12
2019-01-17T07:50:58.875Z,98186.39
2019-01-17T07:53:34.924Z,98188.67
2019-01-17T07:56:04.333Z,98181.47
2019-01-17T07:58:51.606Z,98174.75
2019-01-17T08:01:19.457Z,98185.70
2019-01-17T08:03:50.972Z,98179.83
2019-01-17T08:06:18.835Z,98171.77
2019-01-17T08:08:49.359Z,98183.58
2019-01-17T08:11:17.193Z,98187.83
2019-01-17T08:13:44.987Z,98195.31
2019-01-17T08:16:12.924Z,98180.09
2019-01-17T08:18:40.724Z,98184.49
2019-01-17T08:21:08.502Z,98182.66
2019-01-17T08:23:36.271Z,98188.98
2019-01-17T08:26:04.153Z,98181.27
2019-01-17T08:28:31.956Z,98190.09
2019-01-17T08:30:59.748Z,98183.75
2019-01-17T08:33:27.575Z,98178.50
2019-01-17T08:35:55.336Z,98182.06
2019-01-17T08:38:38.142Z,98195.11
2019-01-17T08:41:05.975Z,98190.74
2019-01-17T08:43:33.766Z,98194.14
2019-01-17T08:46:21.077Z,98198.86
2019-01-17T08:48:48.894Z,98200.31
2019-01-17T08:51:17.993Z,98198.18
2019-01-17T08:53:45.833Z,98191.94
2019-01-17T08:56:13.649Z,98191.12
2019-01-17T08:59:01.138Z,98199.47
2019-01-17T09:01:28.939Z,98187.69
2019-01-17T09:03:56.677Z,98187.62
2019-01-17T09:06:24.518Z,98183.80
2019-01-17T09:08:52.802Z,98189.96
2019-01-17T09:11:20.611Z,98197.50
2019-01-17T09:13:48.400Z,98192.05
2019-01-17T09:16:16.182Z,98192.35
2019-01-17T09:18:44.014Z,98192.16
2019-01-17T09:21:11.805Z,98191.42
2019-01-17T09:23:39.608Z,98195.82
2019-01-17T09:26:07.840Z,98195.78
2019-01-17T09:28:35.859Z,98202.00
2019-01-17T09:31:03.858Z,98203.45
2019-01-17T09:33:31.624Z,98197.22
2019-01-17T09:35:59.470Z,98189.03
2019-01-17T09:38:27.243Z,98188.20
2019-01-17T09:40:55.013Z,98196.01
2019-01-17T09:43:22.811Z,98201.89
2019-01-17T09:45:50.597Z,98191.16
2019-01-17T09:48:18.365Z,98190.11
2019-01-17T09:50:46.126Z,98185.80
2019-01-17T09:53:13.929Z,98178.64
2019-01-17T09:55:41.662Z,98191.73
2019-01-17T09:58:09.555Z,98192.59
2019-01-17T10:00:37.393Z,98196.00
2019-01-17T10:03:05.181Z,98189.06
2019-01-17T10:05:32.995Z,98190.88
2019-01-17T10:08:00.920Z,98195.41
2019-01-17T10:10:28.694Z,98190.08
2019-01-17T10:12:56.485Z,98190.79
2019-01-17T10:16:10.466Z,98192.59
2019-01-17T10:19:36.517Z,98191.06
2019-01-17T10:22:43.840Z,98189.34
2019-01-17T10:25:56.287Z,98196.94
2019-01-17T10:29:08.200Z,98186.98
2019-01-17T10:32:40.792Z,98185.07
2019-01-17T10:35:48.482Z,98184.95
2019-01-17T10:38:59.653Z,98183.83
2019-01-17T10:42:38.025Z,98182.09
2019-01-17T10:45:47.300Z,98174.38
2019-01-17T10:49:21.562Z,98175.36
2019-01-17T10:53:04.736Z,98173.11
2019-01-17T10:56:41.267Z,98165.19
2019-01-17T10:59:42.611Z,98165.11
2019-01-17T11:02:49.424Z,98158.76
2019-01-17T11:05:53.007Z,98149.81
2019-01-17T11:09:19.724Z,98144.61
2019-01-17T11:12:48.191Z,98139.56
2019-01-17T11:16:05.921Z,98143.52
2019-01-17T11:19:38.283Z,98147.25
2019-01-17T11:23:15.435Z,98147.13
2019-01-17T11:26:34.472Z,98146.00
2019-01-17T11:29:35.643Z,98141.59
2019-01-17T11:32:33.366Z,98137.15
2019-01-17T11:35:59.658Z,98124.09
2019-01-17T11:39:16.963Z,98118.23
2019-01-17T11:42:30.605Z,98123.27
2019-01-17T11:45:43.444Z,98132.67
2019-01-17T11:49:03.806Z,98134.53
2019-01-17T11:52:17.886Z,98131.80
2019-01-17T11:55:41.422Z,98133.09
2019-01-17T11:59:23.516Z,98126.16
2019-01-17T12:02:59.595Z,98109.19
2019-01-17T12:05:27.378Z,98109.36
2019-01-17T12:07:55.244Z,98076.39
2019-01-17T12:10:23.381Z,98109.08
2019-01-17T12:12:51.553Z,98113.55
2019-01-17T12:15:19.344Z,98113.86
2019-01-17T12:17:47.144Z,98117.07
2019-01-17T12:20:15.026Z,98120.86
2019-01-17T12:22:42.834Z,98113.16
2019-01-17T12:25:10.736Z,98093.45
2019-01-17T12:27:42.551Z,98095.35
2019-01-17T12:30:12.821Z,98085.70
2019-01-17T12:32:40.627Z,98082.92
2019-01-17T12:35:12.522Z,98083.83
2019-01-17T12:37:40.317Z,98088.74
2019-01-17T12:40:12.046Z,98087.84
2019-01-17T12:42:39.887Z,98082.04
2019-01-17T12:45:09.754Z,98068.09
2019-01-17T12:47:37.707Z,98066.13
2019-01-17T12:50:13.751Z,98072.88
2019-01-17T12:52:41.577Z,98071.75
2019-01-17T12:55:09.511Z,98079.44
2019-01-17T12:57:37.278Z,98069.34
2019-01-17T13:00:09.629Z,98069.27
2019-01-17T13:02:37.411Z,98072.06
2019-01-17T13:05:05.624Z,98068.95
2019-01-17T13:08:03.850Z,98070.09
2019-01-17T13:10:31.630Z,98077.20
2019-01-17T13:12:59.452Z,98071.09
2019-01-17T13:15:27.242Z,98059.66
2019-01-17T13:18:26.213Z,98043.00
2019-01-17T13:20:54.027Z,98043.88
2019-01-17T13:23:21.801Z,98050.41
2019-01-17T13:25:49.565Z,98042.48
2019-01-17T13:28:17.467Z,98041.83
2019-01-17T13:30:45.244Z,98043.70
2019-01-17T13:33:13.003Z,98039.63
2019-01-17T13:35:40.806Z,98045.25
2019-01-17T13:38:08.590Z,98042.65
2019-01-17T13:40:36.360Z,98055.83
2019-01-17T13:43:04.077Z,98045.44
2019-01-17T13:45:31.902Z,98041.64
2019-01-17T13:47:59.738Z,98026.05
2019-01-17T13:50:27.466Z,98036.83
2019-01-17T13:52:55.300Z,98046.90
2019-01-17T13:55:23.110Z,98048.07
2019-01-17T13:58:10.374Z,98040.15
2019-01-17T14:00:38.176Z,98043.20
2019-01-17T14:03:05.979Z,98044.93
2019-01-17T14:05:33.731Z,98053.25
2019-01-17T14:08:01.674Z,98080.29
2019-01-17T14:10:29.484Z,98047.48
2019-01-17T14:12:57.298Z,98059.88
2019-01-17T14:15:27.665Z,98074.13
2019-01-17T14:17:55.460Z,98075.22
2019-01-17T14:20:23.277Z,98080.82
2019-01-17T14:22:51.082Z,98073.30
2019-01-17T14:25:18.946Z,98085.58
2019-01-17T14:27:46.782Z,98077.22
2019-01-17T14:30:21.501Z,98077.17
2019-01-17T14:32:49.347Z,98092.82
2019-01-17T14:35:17.177Z,98086.41
2019-01-17T14:37:50.303Z,98087.41
2019-01-17T14:40:18.111Z,98097.45
2019-01-17T14:42:45.948Z,98085.53
2019-01-17T14:45:16.012Z,98090.42
2019-01-17T14:48:14.519Z,98086.64
2019-01-17T14:50:42.472Z,98086.22
2019-01-17T14:53:10.296Z,98084.08
2019-01-17T14:55:38.564Z,98088.90
2019-01-17T14:58:46.290Z,98094.68
2019-01-17T15:01:14.328Z,98084.20
2019-01-17T15:03:42.159Z,98084.54
2019-01-17T15:06:09.937Z,98082.13
2019-01-17T15:08:57.218Z,98089.95
2019-01-17T15:11:25.342Z,98093.55
2019-01-17T15:13:53.160Z,98094.09
2019-01-17T15:16:20.958Z,98089.38
2019-01-17T15:18:48.734Z,98079.97
2019-01-17T15:21:16.586Z,98090.45
2019-01-17T15:23:44.390Z,98085.91
2019-01-17T15:26:12.209Z,98088.25
2019-01-17T15:28:39.993Z,98084.88
2019-01-17T15:31:07.807Z,98087.37
2019-01-17T15:33:35.621Z,98086.36
2019-01-17T15:36:04.647Z,98090.59
2019-01-17T15:38:32.507Z,98083.62
2019-01-17T15:41:00.332Z,98086.60
2019-01-17T15:43:28.152Z,98081.90
2019-01-17T15:45:55.930Z,98090.72
2019-01-17T15:48:28.768Z,98096.70
2019-01-17T15:50:56.604Z,98089.78
2019-01-17T15:53:25.735Z,98090.64
2019-01-17T15:55:55.845Z,98096.97
2019-01-17T15:58:24.725Z,98099.73
2019-01-17T16:00:52.522Z,98107.11
2019-01-17T16:03:20.317Z,98112.87
2019-01-17T16:05:51.167Z,98113.36
2019-01-17T16:08:18.992Z,98126.22
2019-01-17T16:10:47.264Z,98122.72
2019-01-17T16:13:15.126Z,98133.25
2019-01-17T16:15:42.944Z,98149.14
2019-01-17T16:18:15.902Z,98229.80
2019-01-17T16:20:43.739Z,98243.50
2019-01-17T16:23:11.932Z,98253.31
2019-01-17T16:25:39.707Z,98273.55
2019-01-17T16:28:07.666Z,98273.84
2019-01-17T16:30:53.568Z,98278.73
2019-01-17T16:33:21.448Z,98272.70
2019-01-17T16:35:49.234Z,98271.88
2019-01-17T16:38:20.011Z,98280.79
2019-01-17T16:40:47.773Z,98285.65
2019-01-17T16:43:15.642Z,98291.99
2019-01-17T16:45:43.399Z,98291.51
2019-01-17T16:48:11.286Z,98306.27
2019-01-17T16:50:39.039Z,98304.83
2019-01-17T16:53:06.911Z,98298.78
2019-01-17T16:55:34.756Z,98297.49
2019-01-17T16:58:02.994Z,98306.25
2019-01-17T17:00:42.966Z,98312.75
2019-01-17T17:03:10.779Z,98328.36
2019-01-17T17:05:38.557Z,98334.02
2019-01-17T17:08:06.701Z,98331.20
2019-01-17T17:10:34.493Z,98342.40
2019-01-17T17:13:02.280Z,98345.64
2019-01-17T17:15:30.060Z,98352.34
2019-01-17T17:17:58.033Z,98348.97
2019-01-17T17:20:26.337Z,98344.59
2019-01-17T17:22:54.143Z,98353.06
2019-01-17T17:25:21.902Z,98359.59
2019-01-17T17:27:55.294Z,98374.59
2019-01-17T17:30:22.487Z,98381.43
2019-01-17T17:32:50.260Z,98387.13
2019-01-17T17:35:18.025Z,98390.06
2019-01-17T17:37:45.861Z,98390.72
2019-01-17T17:40:31.900Z,98395.14
2019-01-17T17:42:59.674Z,98389.12
2019-01-17T17:45:28.865Z,98397.94
2019-01-17T17:47:59.465Z,98404.95
2019-01-17T17:50:27.334Z,98404.78
2019-01-17T17:52:55.051Z,98407.55
2019-01-17T17:55:23.310Z,98415.84
2019-01-17T17:58:05.096Z,98417.98
2019-01-17T18:00:42.418Z,98418.61
2019-01-17T18:03:10.295Z,98423.19
2019-01-17T18:05:38.153Z,98428.72
2019-01-17T18:08:11.141Z,98433.30
2019-01-17T18:10:38.935Z,98433.31
2019-01-17T18:13:06.793Z,98434.12
2019-01-17T18:15:34.603Z,98441.96
2019-01-17T18:18:22.131Z,98439.03
2019-01-17T18:20:50.139Z,98445.54
2019-01-17T18:23:17.961Z,98441.79
2019-01-17T18:25:45.775Z,98440.19
2019-01-17T18:28:13.562Z,98448.00
2019-01-17T18:30:41.666Z,98452.86
2019-01-17T18:33:09.647Z,98454.14
2019-01-17T18:35:37.401Z,98460.66
2019-01-17T18:38:05.238Z,98462.92
2019-01-17T18:40:33.017Z,98477.91
2019-01-17T18:43:00.900Z,98482.29
2019-01-17T18:45:28.706Z,98492.57
2019-01-17T18:48:06.659Z,98503.14
2019-01-17T18:50:35.608Z,98508.22
2019-01-17T18:53:03.720Z,98509.70
2019-01-17T18:55:31.557Z,98523.70
2019-01-17T18:57:59.442Z,98522.08
2019-01-17T19:00:29.609Z,98532.03
2019-01-17T19:02:57.627Z,98533.81
2019-01-17T19:05:25.493Z,98536.39
2019-01-17T19:08:01.282Z,98539.82
2019-01-17T19:10:29.648Z,98541.92
2019-01-17T19:12:57.630Z,98538.31
2019-01-17T19:15:28.692Z,98551.84
2019-01-17T19:17:57.301Z,98551.80
2019-01-17T19:20:25.564Z,98562.38
2019-01-17T19:22:53.597Z,98555.55
2019-01-17T19:25:21.540Z,98561.56
2019-01-17T19:27:50.190Z,98557.66
2019-01-17T19:30:30.272Z,98570.00
2019-01-17T19:33:00.512Z,98569.16
2019-01-17T19:35:29.501Z,98560.59
2019-01-17T19:37:58.080Z,98572.36
2019-01-17T19:40:28.656Z,98575.84
2019-01-17T19:42:56.667Z,98583.24
2019-01-17T19:45:24.485Z,98587.55
2019-01-17T19:47:56.544Z,98593.03
2019-01-17T19:50:37.580Z,98601.09
2019-01-17T19:53:12.277Z,98609.86
2019-01-17T19:55:47.542Z,98612.57
2019-01-17T19:58:21.847Z,98616.76
2019-01-17T20:00:53.993Z,98622.16
2019-01-17T20:03:33.124Z,98625.73
2019-01-17T20:06:01.112Z,98623.47
2019-01-17T20:08:35.681Z,98640.09
2019-01-17T20:11:09.778Z,98637.67
2019-01-17T20:13:37.712Z,98640.47
2019-01-17T20:16:08.589Z,98639.34
2019-01-17T20:18:36.956Z,98651.69
2019-01-17T20:21:06.393Z,98646.48
2019-01-17T20:23:37.580Z,98653.64
2019-01-17T20:26:05.536Z,98646.80
2019-01-17T20:28:40.679Z,98654.61
2019-01-17T20:31:08.628Z,98654.74
2019-01-17T20:33:36.570Z,98658.13
2019-01-17T20:36:06.249Z,98669.94
2019-01-17T20:38:34.678Z,98675.91
2019-01-17T20:41:02.517Z,98678.55
2019-01-17T20:43:30.498Z,98685.98
2019-01-17T20:45:58.353Z,98685.88
2019-01-17T20:48:26.351Z,98694.52
2019-01-17T20:50:58.960Z,98695.94
2019-01-17T20:53:29.945Z,98708.17
2019-01-17T20:56:01.208Z,98713.44
2019-01-17T20:58:31.128Z,98715.86
2019-01-17T21:01:36.175Z,98726.58
2019-01-17T21:04:06.411Z,98722.73
2019-01-17T21:06:34.231Z,98727.80
2019-01-17T21:09:21.578Z,98728.09
2019-01-17T21:11:49.850Z,98738.69
2019-01-17T21:14:17.728Z,98737.77
2019-01-17T21:16:45.669Z,98742.09
2019-01-17T21:19:13.534Z,98744.80
2019-01-17T21:21:41.347Z,98748.95
2019-01-17T21:24:09.153Z,98753.75
2019-01-17T21:26:36.944Z,98751.89
2019-01-17T21:29:04.761Z,98743.05
2019-01-17T21:31:32.620Z,98763.91
2019-01-17T21:34:00.500Z,98757.57
2019-01-17T21:36:28.335Z,98763.23
2019-01-17T21:38:56.562Z,98764.14
2019-01-17T21:41:24.378Z,98761.48
2019-01-17T21:43:52.231Z,98769.51
2019-01-17T21:46:20.010Z,98764.09
2019-01-17T21:48:53.076Z,98771.32
2019-01-17T21:51:20.891Z,98777.47
2019-01-17T21:53:48.752Z,98776.56
2019-01-17T21:56:18.218Z,98773.08
2019-01-17T21:58:56.243Z,98779.53
2019-01-17T22:01:23.991Z,98786.75
2019-01-17T22:03:51.897Z,98787.98
2019-01-17T22:06:19.740Z,98789.52
2019-01-17T22:08:47.764Z,98803.52
2019-01-17T22:11:16.739Z,98808.00
2019-01-17T22:13:44.755Z,98813.34
2019-01-17T22:16:12.567Z,98819.01
2019-01-17T22:18:45.753Z,98823.24
2019-01-17T22:21:13.667Z,98829.82
2019-01-17T22:23:41.507Z,98823.81
2019-01-17T22:26:09.332Z,98832.95
2019-01-17T22:29:38.081Z,98832.12
2019-01-17T22:32:05.879Z,98829.61
2019-01-17T22:34:34.538Z,98835.49
2019-01-17T22:37:02.623Z,98839.61
2019-01-17T22:39:30.478Z,98844.63
2019-01-17T22:41:58.323Z,98842.30
2019-01-17T22:44:26.315Z,98849.70
2019-01-17T22:46:54.291Z,98848.61
2019-01-17T22:49:22.084Z,98847.20
2019-01-17T22:51:49.914Z,98846.30
2019-01-17T22:54:17.747Z,98849.16
2019-01-17T22:56:45.628Z,98847.66
2019-01-17T22:59:13.488Z,98844.66
2019-01-17T23:01:42.313Z,98851.08
2019-01-17T23:04:10.168Z,98854.55
2019-01-17T23:06:38.002Z,98850.53
2019-01-17T23:09:07.843Z,98852.02
2019-01-17T23:11:35.693Z,98851.52
2019-01-17T23:14:03.762Z,98854.97
2019-01-17T23:16:31.622Z,98860.25
2019-01-17T23:18:59.460Z,98861.22
2019-01-17T23:21:27.557Z,98865.81
2019-01-17T23:23:55.339Z,98872.50
2019-01-17T23:26:23.169Z,98872.05
2019-01-17T23:28:50.960Z,98878.23
2019-01-17T23:31:18.716Z,98880.89
2019-01-17T23:33:47.130Z,98876.04
2019-01-17T23:36:14.930Z,98884.82
2019-01-17T23:38:43.174Z,98888.77
2019-01-17T23:41:10.929Z,98884.55
2019-01-17T23:43:38.798Z,98889.10
2019-01-17T23:46:06.548Z,98895.53
2019-01-17T23:48:34.496Z,98895.55
2019-01-17T23:51:02.280Z,98899.59
2019-01-17T23:53:30.129Z,98898.75
2019-01-17T23:55:57.941Z,98903.65
2019-01-17T23:58:25.896Z,98902.41
